createdAt,value
2023-03-01T00:00:40.834Z,53.30
2023-03-01T00:03:25.149Z,54.10
2023-03-01T00:05:53.222Z,52.10
2023-03-01T00:08:41.347Z,52.50
2023-03-01T00:11:16.698Z,52.20
2023-03-01T00:13:56.805Z,53.10
2023-03-01T00:16:30.298Z,54.30
2023-03-01T00:18:59.575Z,54.70
2023-03-01T00:21:30.429Z,55.50
2023-03-01T00:24:00.654Z,55.40
2023-03-01T00:26:32.086Z,56.40
2023-03-01T00:29:19.656Z,55.30
2023-03-01T00:32:07.582Z,55.20
2023-03-01T00:34:56.344Z,53.80
2023-03-01T00:37:44.362Z,54.00
2023-03-01T00:40:17.363Z,53.40
2023-03-01T00:42:56.400Z,54.80
2023-03-01T00:45:23.857Z,54.10
2023-03-01T00:48:11.605Z,53.70
2023-03-01T00:50:53.074Z,54.50
2023-03-01T00:53:41.336Z,52.80
2023-03-01T00:56:29.469Z,54.20
2023-03-01T00:58:57.617Z,51.70
2023-03-01T01:01:45.234Z,53.20
2023-03-01T01:04:14.514Z,53.60
2023-03-01T01:06:46.840Z,52.90
2023-03-01T01:09:18.823Z,53.40
2023-03-01T01:12:06.658Z,51.70
2023-03-01T01:14:37.711Z,51.70
2023-03-01T01:17:08.286Z,50.00
2023-03-01T01:19:56.264Z,52.40
2023-03-01T01:22:43.848Z,50.20
2023-03-01T01:25:31.479Z,51.90
2023-03-01T01:28:19.032Z,52.40
2023-03-01T01:31:07.147Z,51.80
2023-03-01T01:33:45.493Z,52.80
2023-03-01T01:36:13.442Z,51.80
2023-03-01T01:38:44.676Z,51.90
2023-03-01T01:41:33.538Z,50.60
2023-03-01T01:44:20.840Z,51.90
2023-03-01T01:46:55.130Z,52.40
2023-03-01T01:49:37.967Z,51.10
2023-03-01T01:52:16.308Z,52.40
2023-03-01T01:54:47.701Z,51.50
2023-03-01T01:57:38.840Z,52.20
2023-03-01T02:00:20.267Z,51.10
2023-03-01T02:03:11.207Z,51.00
2023-03-01T02:06:04.346Z,50.20
2023-03-01T02:08:46.655Z,50.00
2023-03-01T02:11:23.552Z,50.30
2023-03-01T02:13:55.414Z,50.10
2023-03-01T02:16:27.992Z,50.40
2023-03-01T02:19:15.493Z,51.40
2023-03-01T02:21:57.714Z,50.40
2023-03-01T02:24:53.417Z,51.70
2023-03-01T02:27:49.904Z,52.10
2023-03-01T02:30:26.724Z,51.50
2023-03-01T02:33:06.580Z,49.90
2023-03-01T02:35:44.451Z,50.70
2023-03-01T02:38:12.622Z,51.40
2023-03-01T02:41:02.118Z,50.30
2023-03-01T02:43:35.232Z,48.90
2023-03-01T02:46:17.491Z,49.30
2023-03-01T02:48:51.897Z,50.50
2023-03-01T02:51:45.322Z,50.00
2023-03-01T02:54:19.013Z,51.10
2023-03-01T02:56:50.590Z,50.50
2023-03-01T02:59:21.575Z,49.00
2023-03-01T03:01:52.569Z,51.00
2023-03-01T03:04:28.974Z,50.00
2023-03-01T03:07:07.438Z,49.30
2023-03-01T03:09:54.776Z,49.90
2023-03-01T03:15:13.966Z,46.80
2023-03-01T03:17:47.197Z,46.90
2023-03-01T03:20:29.834Z,48.30
2023-03-01T03:23:00.562Z,49.50
2023-03-01T03:25:31.724Z,48.40
2023-03-01T03:28:00.137Z,47.80
2023-03-01T03:30:29.532Z,46.80
2023-03-01T03:33:01.550Z,47.60
2023-03-01T03:35:31.406Z,48.30
2023-03-01T03:38:06.907Z,50.40
2023-03-01T03:41:03.656Z,50.00
2023-03-01T03:43:36.345Z,50.00
2023-03-01T03:46:15.342Z,51.70
2023-03-01T03:49:02.742Z,49.50
2023-03-01T03:51:50.578Z,50.80
2023-03-01T03:54:25.267Z,50.20
2023-03-01T03:57:01.733Z,49.60
2023-03-01T03:59:49.006Z,48.60
2023-03-01T04:02:35.569Z,49.00
2023-03-01T04:10:24.884Z,48.70
2023-03-01T04:13:15.382Z,50.20
2023-03-01T04:16:01.430Z,49.30
2023-03-01T04:18:40.386Z,52.20
2023-03-01T04:21:17.856Z,49.80
2023-03-01T04:23:45.809Z,49.80
2023-03-01T04:26:22.510Z,50.90
2023-03-01T04:29:10.054Z,48.60
2023-03-01T04:31:50.355Z,49.80
2023-03-01T04:34:32.211Z,49.50
2023-03-01T04:37:19.531Z,49.80
2023-03-01T04:39:48.605Z,50.10
2023-03-01T04:42:35.897Z,49.70
2023-03-01T04:45:17.622Z,50.50
2023-03-01T04:47:55.032Z,49.70
2023-03-01T04:50:42.754Z,50.20
2023-03-01T04:53:31.106Z,50.70
2023-03-01T04:56:20.049Z,49.10
2023-03-01T04:59:02.060Z,48.20
2023-03-01T05:01:49.823Z,49.90
2023-03-01T05:04:37.283Z,50.20
2023-03-01T05:07:26.073Z,49.60
2023-03-01T05:10:14.204Z,48.20
2023-03-01T05:12:47.878Z,49.40
2023-03-01T05:15:30.644Z,49.10
2023-03-01T05:18:18.514Z,48.60
2023-03-01T05:21:06.617Z,49.30
2023-03-01T05:23:38.069Z,48.50
2023-03-01T05:26:09.462Z,49.20
2023-03-01T05:28:41.839Z,49.20
2023-03-01T05:31:20.258Z,51.20
2023-03-01T05:33:55.112Z,48.70
2023-03-01T05:36:31.160Z,47.90
2023-03-01T05:39:19.024Z,48.30
2023-03-01T05:41:59.144Z,47.70
2023-03-01T05:44:31.407Z,48.00
2023-03-01T05:47:01.079Z,47.10
2023-03-01T05:49:48.614Z,48.30
2023-03-01T05:52:18.012Z,48.20
2023-03-01T05:54:45.219Z,47.00
2023-03-01T05:57:33.350Z,47.00
2023-03-01T06:00:14.750Z,47.30
2023-03-01T06:03:03.449Z,45.40
2023-03-01T06:05:50.991Z,45.20
2023-03-01T06:08:38.960Z,45.90
2023-03-01T06:11:26.500Z,45.90
2023-03-01T06:14:04.516Z,45.90
2023-03-01T06:16:52.026Z,43.80
2023-03-01T06:19:38.679Z,45.20
2023-03-01T06:22:26.100Z,43.30
2023-03-01T06:25:16.058Z,44.30
2023-03-01T06:27:54.554Z,43.70
2023-03-01T06:30:27.200Z,42.20
2023-03-01T06:33:15.206Z,42.40
2023-03-01T06:35:53.192Z,42.10
2023-03-01T06:38:41.850Z,41.50
2023-03-01T06:41:29.564Z,42.10
2023-03-01T06:44:17.235Z,40.20
2023-03-01T06:46:48.176Z,40.80
2023-03-01T06:49:35.712Z,40.70
2023-03-01T06:52:06.117Z,40.10
2023-03-01T06:54:53.656Z,38.70
2023-03-01T06:57:33.888Z,38.60
2023-03-01T07:00:15.735Z,37.40
2023-03-01T07:02:43.149Z,37.60
2023-03-01T07:05:31.080Z,36.30
2023-03-01T07:07:58.599Z,36.20
2023-03-01T07:10:39.590Z,35.10
2023-03-01T07:13:08.023Z,35.60
2023-03-01T07:15:38.090Z,35.60
2023-03-01T07:18:05.736Z,34.70
2023-03-01T07:20:33.164Z,34.90
2023-03-01T07:23:00.372Z,35.80
2023-03-01T07:25:27.828Z,36.00
2023-03-01T07:27:55.796Z,34.50
2023-03-01T07:30:23.692Z,34.50
2023-03-01T07:32:58.540Z,35.10
2023-03-01T07:35:27.329Z,33.70
2023-03-01T07:37:54.547Z,34.10
2023-03-01T07:40:22.040Z,32.80
2023-03-01T07:42:49.232Z,31.80
2023-03-01T07:45:16.418Z,32.60
2023-03-01T07:47:43.693Z,31.80
2023-03-01T07:50:14.573Z,32.50
2023-03-01T07:52:41.661Z,31.80
2023-03-01T07:55:10.571Z,31.40
2023-03-01T07:57:37.763Z,30.90
2023-03-01T08:00:05.100Z,31.60
2023-03-01T08:02:39.382Z,30.60
2023-03-01T08:05:07.181Z,31.80
2023-03-01T08:07:35.318Z,30.40
2023-03-01T08:10:02.863Z,31.30
2023-03-01T08:12:30.096Z,31.90
2023-03-01T08:14:58.054Z,30.10
2023-03-01T08:17:25.581Z,29.70
2023-03-01T08:19:52.592Z,29.50
2023-03-01T08:22:19.892Z,33.40
2023-03-01T08:24:47.570Z,37.40
2023-03-01T08:27:15.209Z,31.20
2023-03-01T08:29:42.397Z,32.90
2023-03-01T08:32:10.246Z,31.80
2023-03-01T08:34:37.910Z,28.90
2023-03-01T08:37:05.063Z,29.00
2023-03-01T08:39:32.932Z,28.20
2023-03-01T08:42:00.625Z,28.40
2023-03-01T08:44:28.091Z,27.60
2023-03-01T08:46:56.812Z,27.10
2023-03-01T08:49:25.725Z,27.70
2023-03-01T08:51:53.257Z,28.80
2023-03-01T08:54:23.440Z,27.70
2023-03-01T08:56:50.973Z,26.90
2023-03-01T08:59:19.391Z,26.60
2023-03-01T09:01:47.086Z,26.20
2023-03-01T09:04:14.879Z,26.40
2023-03-01T09:06:43.202Z,25.70
2023-03-01T09:09:18.141Z,26.30
2023-03-01T09:11:47.069Z,25.30
2023-03-01T09:14:14.962Z,26.00
2023-03-01T09:16:42.290Z,24.70
2023-03-01T09:19:09.661Z,24.20
2023-03-01T09:21:40.459Z,25.10
2023-03-01T09:24:09.413Z,26.30
2023-03-01T09:26:36.628Z,25.60
2023-03-01T09:29:04.128Z,25.50
2023-03-01T09:31:31.334Z,25.20
2023-03-01T09:33:58.828Z,26.00
2023-03-01T09:36:27.484Z,26.50
2023-03-01T09:38:55.920Z,24.90
2023-03-01T09:41:38.118Z,24.70
2023-03-01T09:44:13.265Z,24.60
2023-03-01T09:46:45.473Z,24.80
2023-03-01T09:49:19.310Z,23.10
2023-03-01T09:51:56.719Z,23.30
2023-03-01T09:54:24.345Z,22.20
2023-03-01T09:57:08.513Z,22.50
2023-03-01T09:59:48.128Z,22.20
2023-03-01T10:02:27.653Z,20.40
2023-03-01T10:04:59.870Z,20.30
2023-03-01T10:07:35.512Z,19.80
2023-03-01T10:10:05.905Z,19.40
2023-03-01T10:12:38.375Z,19.70
2023-03-01T10:15:13.803Z,19.80
2023-03-01T10:17:46.754Z,18.40
2023-03-01T10:20:25.201Z,19.40
2023-03-01T10:22:53.724Z,17.70
2023-03-01T10:25:49.660Z,17.30
2023-03-01T10:28:22.962Z,17.30
2023-03-01T10:30:50.171Z,16.70
2023-03-01T10:33:23.545Z,15.50
2023-03-01T10:35:51.241Z,15.20
2023-03-01T10:38:21.457Z,16.00
2023-03-01T10:40:58.984Z,16.80
2023-03-01T10:43:28.076Z,16.20
2023-03-01T10:45:56.200Z,16.90
2023-03-01T10:48:27.537Z,15.90
2023-03-01T10:51:09.496Z,15.40
2023-03-01T10:53:39.440Z,14.70
2023-03-01T10:56:10.748Z,15.40
2023-03-01T10:58:39.843Z,14.50
2023-03-01T11:01:09.014Z,14.40
2023-03-01T11:03:38.138Z,13.90
2023-03-01T11:06:21.729Z,13.90
2023-03-01T11:08:51.180Z,13.90
2023-03-01T11:11:34.165Z,13.90
2023-03-01T11:14:15.966Z,13.30
2023-03-01T11:17:20.789Z,13.40
2023-03-01T11:20:05.772Z,13.30
2023-03-01T11:22:37.095Z,13.40
2023-03-01T11:25:10.438Z,12.00
2023-03-01T11:27:43.226Z,11.80
2023-03-01T11:30:20.725Z,11.90
2023-03-01T11:32:56.042Z,13.80
2023-03-01T11:35:27.902Z,12.90
2023-03-01T11:38:05.711Z,12.40
2023-03-01T11:40:42.589Z,12.70
2023-03-01T11:43:21.707Z,13.00
2023-03-01T11:46:05.024Z,12.60
2023-03-01T11:48:55.799Z,12.80
2023-03-01T11:51:36.022Z,12.40
2023-03-01T11:54:16.523Z,12.40
2023-03-01T11:56:49.678Z,12.70
2023-03-01T11:59:48.047Z,12.40
2023-03-01T12:02:40.365Z,12.40
2023-03-01T12:05:43.355Z,11.90
2023-03-01T12:08:16.767Z,11.80
2023-03-01T12:10:53.972Z,12.90
2023-03-01T12:13:54.498Z,12.10
2023-03-01T12:16:39.204Z,12.90
2023-03-01T12:19:42.112Z,12.30
2023-03-01T12:22:34.205Z,12.80
2023-03-01T12:25:18.358Z,13.00
2023-03-01T12:28:00.734Z,13.40
2023-03-01T12:30:39.374Z,13.40
2023-03-01T12:33:21.011Z,13.60
2023-03-01T12:36:06.288Z,13.10
2023-03-01T12:38:48.612Z,13.40
2023-03-01T12:41:40.310Z,14.00
2023-03-01T12:44:28.646Z,14.10
2023-03-01T12:47:28.526Z,14.90
2023-03-01T12:50:22.476Z,13.70
2023-03-01T12:52:55.371Z,14.40
2023-03-01T12:55:32.119Z,14.80
2023-03-01T12:58:08.762Z,14.60
2023-03-01T13:00:43.478Z,15.40
2023-03-01T13:03:22.035Z,13.30
2023-03-01T13:06:07.500Z,13.90
2023-03-01T13:08:42.779Z,13.90
2023-03-01T13:11:18.996Z,13.80
2023-03-01T13:14:34.964Z,13.20
2023-03-01T13:17:02.564Z,14.70
2023-03-01T13:19:33.485Z,14.40
2023-03-01T13:22:32.654Z,14.70
2023-03-01T13:25:21.501Z,15.10
2023-03-01T13:27:49.780Z,14.60
2023-03-01T13:30:44.421Z,14.80
2023-03-01T13:33:47.221Z,15.10
2023-03-01T13:36:51.096Z,14.30
2023-03-01T13:39:34.773Z,14.30
2023-03-01T13:42:02.907Z,14.70
2023-03-01T13:44:34.793Z,14.30
2023-03-01T13:47:18.796Z,14.80
2023-03-01T13:49:49.387Z,14.40
2023-03-01T13:52:36.818Z,14.30
2023-03-01T13:55:17.802Z,15.40
2023-03-01T13:57:49.168Z,14.20
2023-03-01T14:00:40.035Z,14.60
2023-03-01T14:03:12.146Z,14.50
2023-03-01T14:05:40.235Z,15.00
2023-03-01T14:08:19.910Z,15.10
2023-03-01T14:10:55.464Z,14.40
2023-03-01T14:13:35.959Z,15.50
2023-03-01T14:16:17.357Z,15.30
2023-03-01T14:19:03.918Z,14.30
2023-03-01T14:21:31.607Z,15.70
2023-03-01T14:23:59.914Z,14.60
2023-03-01T14:26:27.716Z,14.10
2023-03-01T14:28:58.487Z,13.70
2023-03-01T14:31:52.679Z,12.70
2023-03-01T14:34:24.209Z,11.70
2023-03-01T14:36:51.784Z,11.10
2023-03-01T14:39:27.445Z,13.30
2023-03-01T14:41:57.382Z,15.60
2023-03-01T14:44:27.689Z,15.40
2023-03-01T14:46:58.709Z,14.00
2023-03-01T14:49:38.149Z,13.50
2023-03-01T14:52:07.505Z,12.60
2023-03-01T14:54:43.210Z,11.70
2023-03-01T14:57:18.902Z,13.70
2023-03-01T14:59:46.846Z,12.40
2023-03-01T15:02:20.405Z,14.10
2023-03-01T15:04:51.377Z,15.20
2023-03-01T15:07:20.108Z,13.40
2023-03-01T15:09:47.891Z,14.60
2023-03-01T15:12:39.028Z,14.70
2023-03-01T15:15:33.388Z,15.90
2023-03-01T15:18:03.702Z,15.00
2023-03-01T15:20:37.036Z,15.20
2023-03-01T15:23:05.370Z,15.20
2023-03-01T15:25:34.494Z,15.00
2023-03-01T15:28:03.549Z,15.10
2023-03-01T15:30:35.976Z,16.00
2023-03-01T15:33:30.934Z,14.90
2023-03-01T15:35:59.333Z,15.60
2023-03-01T15:38:39.456Z,14.70
2023-03-01T15:41:23.658Z,16.10
2023-03-01T15:43:51.997Z,16.20
2023-03-01T15:46:27.502Z,15.70
2023-03-01T15:48:57.873Z,15.40
2023-03-01T15:51:31.834Z,15.70
2023-03-01T15:54:01.562Z,15.40
2023-03-01T15:56:31.686Z,16.20
2023-03-01T15:59:08.517Z,16.60
2023-03-01T16:01:36.501Z,16.30
2023-03-01T16:04:03.812Z,17.90
2023-03-01T16:06:31.466Z,16.60
2023-03-01T16:08:59.112Z,16.50
2023-03-01T16:11:26.677Z,17.10
2023-03-01T16:13:57.250Z,16.90
2023-03-01T16:16:24.692Z,16.70
2023-03-01T16:18:54.370Z,17.30
2023-03-01T16:21:26.528Z,16.90
2023-03-01T16:23:54.937Z,18.10
2023-03-01T16:26:22.424Z,19.00
2023-03-01T16:28:50.439Z,19.20
2023-03-01T16:31:23.060Z,17.60
2023-03-01T16:36:25.716Z,19.00
2023-03-01T16:38:53.554Z,19.30
2023-03-01T16:41:23.783Z,18.60
2023-03-01T16:43:51.506Z,18.60
2023-03-01T16:46:20.071Z,18.60
2023-03-01T16:48:48.760Z,17.90
2023-03-01T16:51:16.498Z,19.00
2023-03-01T16:53:45.656Z,17.80
2023-03-01T16:56:16.843Z,18.40
2023-03-01T16:58:44.921Z,17.30
2023-03-01T17:01:15.232Z,18.10
2023-03-01T17:03:53.243Z,17.60
2023-03-01T17:06:24.642Z,16.90
2023-03-01T17:08:52.001Z,17.60
2023-03-01T17:11:39.706Z,17.60
2023-03-01T17:16:44.414Z,17.70
2023-03-01T17:19:11.884Z,18.80
2023-03-01T17:21:43.754Z,18.30
2023-03-01T17:24:30.812Z,19.40
2023-03-01T17:27:01.612Z,19.10
2023-03-01T17:29:28.831Z,19.40
2023-03-01T17:31:57.072Z,19.20
2023-03-01T17:34:24.990Z,18.50
2023-03-01T17:36:52.931Z,20.50
2023-03-01T17:39:25.998Z,20.20
2023-03-01T17:42:13.476Z,19.70
2023-03-01T17:44:42.328Z,21.90
2023-03-01T17:47:11.563Z,21.10
2023-03-01T17:49:38.745Z,20.30
2023-03-01T17:52:06.363Z,21.40
2023-03-01T17:54:34.456Z,22.20
2023-03-01T17:57:02.169Z,22.40
2023-03-01T17:59:31.544Z,21.80
2023-03-01T18:02:01.715Z,22.60
2023-03-01T18:04:29.307Z,23.30
2023-03-01T18:06:57.689Z,23.30
2023-03-01T18:09:30.982Z,23.70
2023-03-01T18:11:59.047Z,23.40
2023-03-01T18:14:29.930Z,23.50
2023-03-01T18:17:17.240Z,24.00
2023-03-01T18:19:47.557Z,24.60
2023-03-01T18:22:14.980Z,24.70
2023-03-01T18:24:43.196Z,25.40
2023-03-01T18:27:31.151Z,25.00
2023-03-01T18:30:02.252Z,25.20
2023-03-01T18:32:30.905Z,26.00
2023-03-01T18:34:59.299Z,26.10
2023-03-01T18:37:26.869Z,26.10
2023-03-01T18:39:56.830Z,25.10
2023-03-01T18:42:23.988Z,25.10
2023-03-01T18:44:55.171Z,25.40
2023-03-01T18:47:25.280Z,27.20
2023-03-01T18:49:52.552Z,26.20
2023-03-01T18:52:20.116Z,28.30
2023-03-01T18:54:58.725Z,26.90
2023-03-01T18:57:26.434Z,27.80
2023-03-01T18:59:56.705Z,27.50
2023-03-01T19:02:24.460Z,27.80
2023-03-01T19:04:53.897Z,29.60
2023-03-01T19:07:32.087Z,28.40
2023-03-01T19:09:59.920Z,29.60
2023-03-01T19:12:28.239Z,30.00
2023-03-01T19:14:55.652Z,30.00
2023-03-01T19:17:33.937Z,29.70
2023-03-01T19:20:08.416Z,30.30
2023-03-01T19:22:35.865Z,29.70
2023-03-01T19:25:03.172Z,31.20
2023-03-01T19:27:33.461Z,31.40
2023-03-01T19:30:01.341Z,31.60
2023-03-01T19:32:32.838Z,32.10
2023-03-01T19:35:00.325Z,31.60
2023-03-01T19:37:38.783Z,31.20
2023-03-01T19:40:13.593Z,32.60
2023-03-01T19:42:45.645Z,34.10
2023-03-01T19:45:14.664Z,34.00
2023-03-01T19:47:55.129Z,33.90
2023-03-01T19:50:25.940Z,33.80
2023-03-01T19:52:53.181Z,36.30
2023-03-01T19:55:20.499Z,35.60
2023-03-01T19:57:48.005Z,35.20
2023-03-01T20:00:17.233Z,35.10
2023-03-01T20:02:44.736Z,35.10
2023-03-01T20:05:12.562Z,36.00
2023-03-01T20:07:44.477Z,36.50
2023-03-01T20:10:15.361Z,36.60
2023-03-01T20:12:42.858Z,36.10
2023-03-01T20:15:12.078Z,38.00
2023-03-01T20:17:42.712Z,38.20
2023-03-01T20:20:11.735Z,37.80
2023-03-01T20:22:42.258Z,38.70
2023-03-01T20:25:11.670Z,40.70
2023-03-01T20:27:39.321Z,38.20
2023-03-01T20:30:07.977Z,40.70
2023-03-01T20:32:35.550Z,40.40
2023-03-01T20:35:03.244Z,39.90
2023-03-01T20:37:33.782Z,41.30
2023-03-01T20:40:16.193Z,40.80
2023-03-01T20:42:43.717Z,41.90
2023-03-01T20:45:12.595Z,40.80
2023-03-01T20:47:39.911Z,41.70
2023-03-01T20:50:10.604Z,42.30
2023-03-01T20:52:58.396Z,42.10
2023-03-01T20:55:25.885Z,44.10
2023-03-01T20:57:53.032Z,43.80
2023-03-01T21:00:21.443Z,43.70
2023-03-01T21:02:48.960Z,44.60
2023-03-01T21:05:16.223Z,44.10
2023-03-01T21:07:44.057Z,44.10
2023-03-01T21:10:31.914Z,45.10
2023-03-01T21:12:59.478Z,46.00
2023-03-01T21:15:29.446Z,47.90
2023-03-01T21:17:57.164Z,46.30
2023-03-01T21:20:24.723Z,48.30
2023-03-01T21:22:51.947Z,49.40
2023-03-01T21:25:22.296Z,48.40
2023-03-01T21:27:59.896Z,47.50
2023-03-01T21:30:28.991Z,48.60
2023-03-01T21:32:56.175Z,48.70
2023-03-01T21:35:24.231Z,48.60
2023-03-01T21:38:03.077Z,47.50
2023-03-01T21:40:30.601Z,49.20
2023-03-01T21:43:00.635Z,49.10
2023-03-01T21:45:28.350Z,49.10
2023-03-01T21:48:15.853Z,48.40
2023-03-01T21:50:43.085Z,51.00
2023-03-01T21:53:10.531Z,52.30
2023-03-01T21:55:58.556Z,51.80
2023-03-01T21:58:29.445Z,51.60
2023-03-01T22:00:57.280Z,53.60
2023-03-01T22:03:25.066Z,53.50
2023-03-01T22:06:03.385Z,52.00
2023-03-01T22:08:33.205Z,53.50
2023-03-01T22:11:03.584Z,53.80
2023-03-01T22:13:30.730Z,51.50
2023-03-01T22:16:11.048Z,51.60
2023-03-01T22:18:59.323Z,49.40
2023-03-01T22:21:26.786Z,51.70
2023-03-01T22:24:04.528Z,51.20
2023-03-01T22:26:53.711Z,49.70
2023-03-01T22:29:23.348Z,51.10
2023-03-01T22:32:02.195Z,51.50
2023-03-01T22:34:49.836Z,51.40
2023-03-01T22:37:25.105Z,51.40
2023-03-01T22:39:52.307Z,53.70
2023-03-01T22:42:19.997Z,54.60
2023-03-01T22:45:09.462Z,52.60
2023-03-01T22:47:38.795Z,53.80
2023-03-01T22:50:26.578Z,52.20
2023-03-01T22:52:53.782Z,55.30
2023-03-01T22:55:24.006Z,54.80
2023-03-01T22:57:54.423Z,55.20
2023-03-01T23:00:29.249Z,55.80
2023-03-01T23:02:56.929Z,56.40
2023-03-01T23:05:35.692Z,57.60
2023-03-01T23:08:03.561Z,57.30
2023-03-01T23:10:30.920Z,58.30
2023-03-01T23:13:07.617Z,57.20
2023-03-01T23:15:58.126Z,59.00
2023-03-01T23:18:40.088Z,57.80
2023-03-01T23:21:18.959Z,55.90
2023-03-01T23:23:48.055Z,57.50
2023-03-01T23:26:19.306Z,57.10
2023-03-01T23:28:49.880Z,56.60
2023-03-01T23:31:20.436Z,54.60
2023-03-01T23:33:58.821Z,56.50
2023-03-01T23:36:38.473Z,57.00
2023-03-01T23:39:16.164Z,55.40
2023-03-01T23:41:56.573Z,56.60
2023-03-01T23:44:24.717Z,55.30
2023-03-01T23:46:55.127Z,56.10
2023-03-01T23:49:24.980Z,54.80
2023-03-01T23:51:57.533Z,55.00
2023-03-01T23:54:26.900Z,54.70
2023-03-01T23:56:54.583Z,54.80
2023-03-01T23:59:42.359Z,55.00
